createdAt,value
2023-10-13T00:00:14.512Z,1006.00
2023-10-13T00:01:14.612Z,1005.98
2023-10-13T00:02:14.778Z,1006.02
2023-10-13T00:03:14.768Z,1006.00
2023-10-13T00:04:14.881Z,1006.02
2023-10-13T00:05:14.884Z,1005.99
2023-10-13T00:06:14.908Z,1006.02
2023-10-13T00:07:15.041Z,1005.95
2023-10-13T00:08:15.216Z,1005.94
2023-10-13T00:09:15.585Z,1005.95
2023-10-13T00:10:15.380Z,1006.00
2023-10-13T00:11:15.323Z,1005.98
2023-10-13T00:12:15.447Z,1005.94
2023-10-13T00:13:15.553Z,1005.95
2023-10-13T00:14:15.533Z,1005.95
2023-10-13T00:15:14.591Z,1005.89
2023-10-13T00:16:15.769Z,1005.91
2023-10-13T00:17:15.827Z,1005.84
2023-10-13T00:18:16.482Z,1005.85
2023-10-13T00:19:15.906Z,1005.84
2023-10-13T00:20:15.970Z,1005.78
2023-10-13T00:21:16.036Z,1005.83
2023-10-13T00:22:16.164Z,1005.81
2023-10-13T00:23:16.197Z,1005.78
2023-10-13T00:24:15.291Z,1005.73
2023-10-13T00:25:16.373Z,1005.77
2023-10-13T00:26:16.426Z,1005.75
2023-10-13T00:27:16.488Z,1005.72
2023-10-13T00:28:16.566Z,1005.75
2023-10-13T00:29:16.632Z,1005.77
2023-10-13T00:30:16.713Z,1005.79
2023-10-13T00:31:16.817Z,1005.69
2023-10-13T00:32:16.886Z,1005.67
2023-10-13T00:33:16.889Z,1005.66
2023-10-13T00:34:17.048Z,1005.64
2023-10-13T00:35:17.066Z,1005.71
2023-10-13T00:36:17.111Z,1005.59
2023-10-13T00:37:17.272Z,1005.57
2023-10-13T00:38:17.285Z,1005.63
2023-10-13T00:39:17.710Z,1005.50
2023-10-13T00:40:17.529Z,1005.55
2023-10-13T00:41:17.505Z,1005.51
2023-10-13T00:42:17.583Z,1005.52
2023-10-13T00:43:17.697Z,1005.55
2023-10-13T00:44:17.759Z,1005.59
2023-10-13T00:45:17.858Z,1005.58
2023-10-13T00:46:17.879Z,1005.55
2023-10-13T00:47:18.012Z,1005.56
2023-10-13T00:48:18.050Z,1005.47
2023-10-13T00:49:18.169Z,1005.55
2023-10-13T00:50:18.232Z,1005.47
2023-10-13T00:51:18.244Z,1005.52
2023-10-13T00:52:18.366Z,1005.52
2023-10-13T00:53:18.433Z,1005.48
2023-10-13T00:56:31.726Z,1005.44
2023-10-13T00:57:32.781Z,1005.42
2023-10-13T00:58:32.827Z,1005.41
2023-10-13T00:59:32.863Z,1005.40
2023-10-13T01:00:33.079Z,1005.39
2023-10-13T01:01:33.104Z,1005.39
2023-10-13T01:02:33.061Z,1005.42
2023-10-13T01:03:33.132Z,1005.41
2023-10-13T01:04:33.402Z,1005.40
2023-10-13T01:05:33.308Z,1005.36
2023-10-13T01:06:33.365Z,1005.31
2023-10-13T01:07:33.480Z,1005.27
2023-10-13T01:08:33.510Z,1005.29
2023-10-13T01:09:33.590Z,1005.26
2023-10-13T01:10:34.020Z,1005.27
2023-10-13T01:11:33.728Z,1005.29
2023-10-13T01:12:33.793Z,1005.34
2023-10-13T01:13:34.475Z,1005.33
2023-10-13T01:14:33.969Z,1005.30
2023-10-13T01:15:34.105Z,1005.30
2023-10-13T01:16:34.204Z,1005.24
2023-10-13T01:17:34.222Z,1005.24
2023-10-13T01:18:34.257Z,1005.25
2023-10-13T01:19:34.410Z,1005.23
2023-10-13T01:20:34.446Z,1005.23
2023-10-13T01:21:34.492Z,1005.27
2023-10-13T01:22:34.590Z,1005.25
2023-10-13T01:23:34.636Z,1005.26
2023-10-13T01:24:34.721Z,1005.26
2023-10-13T01:25:34.891Z,1005.19
2023-10-13T01:26:35.155Z,1005.18
2023-10-13T01:27:35.225Z,1005.16
2023-10-13T01:28:35.052Z,1005.16
2023-10-13T01:29:35.104Z,1005.18
2023-10-13T01:30:35.830Z,1005.13
2023-10-13T01:31:35.342Z,1005.12
2023-10-13T01:32:35.541Z,1005.16
2023-10-13T01:33:35.495Z,1005.15
2023-10-13T01:34:35.505Z,1005.06
2023-10-13T01:35:35.587Z,1005.07
2023-10-13T01:36:35.636Z,1005.06
2023-10-13T01:37:35.759Z,1005.03
2023-10-13T01:38:35.840Z,1005.04
2023-10-13T01:39:35.866Z,1005.02
2023-10-13T01:40:35.970Z,1005.05
2023-10-13T01:41:36.031Z,1005.04
2023-10-13T01:42:36.054Z,1005.00
2023-10-13T01:43:36.262Z,1004.99
2023-10-13T01:44:36.219Z,1005.06
2023-10-13T01:45:36.348Z,1005.03
2023-10-13T01:46:36.426Z,1004.96
2023-10-13T01:47:36.438Z,1004.96
2023-10-13T01:48:36.488Z,1004.98
2023-10-13T01:49:36.625Z,1004.95
2023-10-13T01:50:36.678Z,1004.95
2023-10-13T01:51:36.770Z,1004.89
2023-10-13T01:52:36.850Z,1004.87
2023-10-13T01:53:36.896Z,1004.85
2023-10-13T01:54:36.955Z,1004.80
2023-10-13T01:55:37.053Z,1004.82
2023-10-13T01:56:37.130Z,1004.82
2023-10-13T01:57:37.172Z,1004.86
2023-10-13T01:58:37.278Z,1004.79
2023-10-13T01:59:37.329Z,1004.84
2023-10-13T02:00:37.425Z,1004.80
2023-10-13T02:01:37.571Z,1004.79
2023-10-13T02:02:37.601Z,1004.77
2023-10-13T02:03:37.679Z,1004.74
2023-10-13T02:04:37.779Z,1004.76
2023-10-13T02:05:37.910Z,1004.77
2023-10-13T02:06:37.874Z,1004.76
2023-10-13T02:07:37.955Z,1004.73
2023-10-13T02:08:38.029Z,1004.67
2023-10-13T02:09:38.101Z,1004.67
2023-10-13T02:10:38.254Z,1004.69
2023-10-13T02:11:38.261Z,1004.63
2023-10-13T02:12:38.314Z,1004.62
2023-10-13T02:13:38.461Z,1004.60
2023-10-13T02:14:38.500Z,1004.54
2023-10-13T02:15:38.631Z,1004.52
2023-10-13T02:16:38.771Z,1004.49
2023-10-13T02:17:38.762Z,1004.49
2023-10-13T02:18:38.802Z,1004.48
2023-10-13T02:19:38.924Z,1004.45
2023-10-13T02:20:38.960Z,1004.42
2023-10-13T02:21:39.054Z,1004.42
2023-10-13T02:22:39.152Z,1004.43
2023-10-13T02:23:39.198Z,1004.39
2023-10-13T02:24:39.261Z,1004.47
2023-10-13T02:25:39.376Z,1004.34
2023-10-13T02:26:39.439Z,1004.44
2023-10-13T02:27:39.464Z,1004.43
2023-10-13T02:28:39.584Z,1004.39
2023-10-13T02:29:39.637Z,1004.44
2023-10-13T02:30:39.692Z,1004.41
2023-10-13T02:31:39.964Z,1004.38
2023-10-13T02:32:39.904Z,1004.34
2023-10-13T02:33:39.959Z,1004.31
2023-10-13T02:34:40.051Z,1004.31
2023-10-13T02:35:40.091Z,1004.23
2023-10-13T02:36:40.188Z,1004.25
2023-10-13T02:37:40.276Z,1004.26
2023-10-13T02:38:40.349Z,1004.22
2023-10-13T02:39:40.394Z,1004.21
2023-10-13T02:40:40.798Z,1004.18
2023-10-13T02:41:40.555Z,1004.18
2023-10-13T02:42:40.626Z,1004.22
2023-10-13T02:43:40.710Z,1004.19
2023-10-13T02:44:40.779Z,1004.15
2023-10-13T02:45:40.842Z,1004.16
2023-10-13T02:46:41.329Z,1004.15
2023-10-13T02:47:41.106Z,1004.14
2023-10-13T02:48:41.097Z,1004.13
2023-10-13T02:49:41.206Z,1004.13
2023-10-13T02:50:41.244Z,1004.12
2023-10-13T02:51:41.363Z,1004.12
2023-10-13T02:52:41.424Z,1004.10
2023-10-13T02:53:41.452Z,1004.06
2023-10-13T02:54:41.541Z,1004.04
2023-10-13T02:55:41.646Z,1003.99
2023-10-13T02:56:41.711Z,1004.05
2023-10-13T02:57:41.788Z,1004.03
2023-10-13T02:58:41.850Z,1003.96
2023-10-13T02:59:42.072Z,1004.00
2023-10-13T03:00:42.801Z,1003.95
2023-10-13T03:01:42.071Z,1003.93
2023-10-13T03:02:42.194Z,1003.87
2023-10-13T03:03:42.216Z,1003.90
2023-10-13T03:04:42.318Z,1003.89
2023-10-13T03:05:42.346Z,1003.87
2023-10-13T03:06:42.434Z,1003.91
2023-10-13T03:07:42.808Z,1003.84
2023-10-13T03:08:42.592Z,1003.86
2023-10-13T03:09:42.669Z,1003.82
2023-10-13T03:10:42.784Z,1003.83
2023-10-13T03:11:42.831Z,1003.83
2023-10-13T03:12:43.237Z,1003.84
2023-10-13T03:13:43.097Z,1003.78
2023-10-13T03:14:43.042Z,1003.76
2023-10-13T03:15:43.119Z,1003.79
2023-10-13T03:16:43.267Z,1003.77
2023-10-13T03:17:43.589Z,1003.78
2023-10-13T03:18:43.342Z,1003.72
2023-10-13T03:19:43.477Z,1003.76
2023-10-13T03:20:43.514Z,1003.68
2023-10-13T03:21:43.596Z,1003.61
2023-10-13T03:22:43.718Z,1003.67
2023-10-13T03:23:43.763Z,1003.66
2023-10-13T03:24:43.810Z,1003.67
2023-10-13T03:25:44.308Z,1003.70
2023-10-13T03:26:43.963Z,1003.68
2023-10-13T03:27:44.060Z,1003.69
2023-10-13T03:28:44.149Z,1003.69
2023-10-13T03:29:44.186Z,1003.70
2023-10-13T03:30:44.298Z,1003.71
2023-10-13T03:31:44.368Z,1003.67
2023-10-13T03:32:44.506Z,1003.66
2023-10-13T03:33:44.509Z,1003.63
2023-10-13T03:34:44.629Z,1003.67
2023-10-13T03:35:44.674Z,1003.69
2023-10-13T03:36:44.765Z,1003.64
2023-10-13T03:37:44.865Z,1003.63
2023-10-13T03:38:44.915Z,1003.60
2023-10-13T03:39:44.983Z,1003.60
2023-10-13T03:40:45.098Z,1003.61
2023-10-13T03:41:45.168Z,1003.58
2023-10-13T03:42:45.210Z,1003.57
2023-10-13T03:43:45.324Z,1003.58
2023-10-13T03:44:45.363Z,1003.56
2023-10-13T03:45:44.492Z,1003.57
2023-10-13T03:46:45.548Z,1003.56
2023-10-13T03:47:45.684Z,1003.56
2023-10-13T03:48:45.700Z,1003.54
2023-10-13T03:49:45.769Z,1003.53
2023-10-13T03:50:45.809Z,1003.49
2023-10-13T03:51:45.884Z,1003.50
2023-10-13T03:52:45.984Z,1003.46
2023-10-13T03:53:46.035Z,1003.47
2023-10-13T03:54:46.074Z,1003.45
2023-10-13T03:55:46.166Z,1003.39
2023-10-13T03:56:46.245Z,1003.41
2023-10-13T03:57:46.314Z,1003.46
2023-10-13T03:58:46.434Z,1003.47
2023-10-13T03:59:46.505Z,1003.41
2023-10-13T04:00:46.502Z,1003.42
2023-10-13T04:01:46.700Z,1003.41
2023-10-13T04:02:46.782Z,1003.44
2023-10-13T04:03:46.743Z,1003.44
2023-10-13T04:04:46.840Z,1003.36
2023-10-13T04:05:46.890Z,1003.27
2023-10-13T04:06:47.003Z,1003.28
2023-10-13T04:07:47.061Z,1003.30
2023-10-13T04:08:47.079Z,1003.28
2023-10-13T04:09:47.169Z,1003.22
2023-10-13T04:10:47.275Z,1003.28
2023-10-13T04:11:47.301Z,1003.14
2023-10-13T04:12:47.368Z,1003.17
2023-10-13T04:13:47.462Z,1003.12
2023-10-13T04:14:47.531Z,1003.00
2023-10-13T04:15:47.569Z,1003.03
2023-10-13T04:16:47.733Z,1003.01
2023-10-13T04:17:47.968Z,1003.03
2023-10-13T04:18:47.827Z,1003.02
2023-10-13T04:19:47.944Z,1003.01
2023-10-13T04:20:48.009Z,1002.95
2023-10-13T04:21:48.065Z,1002.88
2023-10-13T04:22:49.503Z,1002.93
2023-10-13T04:23:48.188Z,1002.89
2023-10-13T04:24:48.556Z,1002.83
2023-10-13T04:25:48.472Z,1002.88
2023-10-13T04:26:48.479Z,1002.81
2023-10-13T04:27:48.566Z,1002.75
2023-10-13T04:28:48.673Z,1002.76
2023-10-13T04:29:48.740Z,1002.74
2023-10-13T04:30:48.763Z,1002.73
2023-10-13T04:31:48.869Z,1002.67
2023-10-13T04:32:49.045Z,1002.69
2023-10-13T04:33:48.984Z,1002.67
2023-10-13T04:34:49.119Z,1002.65
2023-10-13T04:35:49.217Z,1002.63
2023-10-13T04:36:49.223Z,1002.62
2023-10-13T04:37:49.342Z,1002.62
2023-10-13T04:38:49.372Z,1002.63
2023-10-13T04:39:50.166Z,1002.65
2023-10-13T04:40:49.542Z,1002.70
2023-10-13T04:41:49.584Z,1002.77
2023-10-13T04:42:49.648Z,1002.81
2023-10-13T04:43:49.716Z,1002.79
2023-10-13T04:44:49.804Z,1002.74
2023-10-13T04:45:49.890Z,1002.61
2023-10-13T04:46:50.036Z,1002.58
2023-10-13T04:47:50.040Z,1002.51
2023-10-13T04:48:50.141Z,1002.54
2023-10-13T04:49:50.214Z,1002.55
2023-10-13T04:50:50.274Z,1002.56
2023-10-13T04:51:50.357Z,1002.52
2023-10-13T04:52:50.489Z,1002.48
2023-10-13T04:53:50.480Z,1002.51
2023-10-13T04:54:50.787Z,1002.40
2023-10-13T04:55:50.671Z,1002.45
2023-10-13T04:56:50.762Z,1002.40
2023-10-13T04:57:50.820Z,1002.39
2023-10-13T04:58:50.888Z,1002.35
2023-10-13T04:59:50.953Z,1002.25
2023-10-13T05:00:51.021Z,1002.26
2023-10-13T05:01:51.637Z,1002.18
2023-10-13T05:02:51.269Z,1002.18
2023-10-13T05:03:51.361Z,1002.22
2023-10-13T05:04:51.464Z,1002.11
2023-10-13T05:05:51.389Z,1002.07
2023-10-13T05:06:51.505Z,1002.05
2023-10-13T05:07:51.576Z,1002.08
2023-10-13T05:08:51.635Z,1002.10
2023-10-13T05:09:51.681Z,1002.15
2023-10-13T05:10:51.797Z,1002.11
2023-10-13T05:11:51.870Z,1002.10
2023-10-13T05:12:51.942Z,1002.08
2023-10-13T05:13:52.180Z,1002.05
2023-10-13T05:14:52.096Z,1002.09
2023-10-13T05:15:52.152Z,1002.01
2023-10-13T05:16:52.292Z,1001.95
2023-10-13T05:17:52.314Z,1002.06
2023-10-13T05:18:52.433Z,1002.00
2023-10-13T05:19:52.481Z,1002.02
2023-10-13T05:20:52.503Z,1001.95
2023-10-13T05:21:52.836Z,1001.88
2023-10-13T05:22:52.650Z,1001.91
2023-10-13T05:23:53.132Z,1001.90
2023-10-13T05:24:52.830Z,1001.92
2023-10-13T05:25:52.992Z,1001.89
2023-10-13T05:26:53.016Z,1001.88
2023-10-13T05:27:53.037Z,1001.81
2023-10-13T05:28:53.491Z,1001.78
2023-10-13T05:29:53.260Z,1001.78
2023-10-13T05:30:53.329Z,1001.78
2023-10-13T05:31:53.473Z,1001.78
2023-10-13T05:32:53.631Z,1001.78
2023-10-13T05:33:53.593Z,1001.72
2023-10-13T05:34:53.800Z,1001.73
2023-10-13T05:35:53.748Z,1001.68
2023-10-13T05:36:53.805Z,1001.70
2023-10-13T05:37:53.892Z,1001.67
2023-10-13T05:38:53.983Z,1001.63
2023-10-13T05:39:53.994Z,1001.62
2023-10-13T05:40:54.139Z,1001.60
2023-10-13T05:41:54.220Z,1001.62
2023-10-13T05:42:54.299Z,1001.63
2023-10-13T05:43:54.383Z,1001.59
2023-10-13T05:44:54.451Z,1001.54
2023-10-13T05:45:54.600Z,1001.54
2023-10-13T05:46:54.733Z,1001.51
2023-10-13T05:47:54.758Z,1001.55
2023-10-13T05:48:54.802Z,1001.46
2023-10-13T05:49:54.943Z,1001.47
2023-10-13T05:50:55.049Z,1001.48
2023-10-13T05:51:55.033Z,1001.43
2023-10-13T05:52:55.157Z,1001.38
2023-10-13T05:53:55.192Z,1001.38
2023-10-13T05:54:55.282Z,1001.40
2023-10-13T05:55:55.356Z,1001.38
2023-10-13T05:56:55.522Z,1001.37
2023-10-13T05:57:55.538Z,1001.38
2023-10-13T05:58:57.783Z,1001.39
2023-10-13T05:59:55.752Z,1001.37
2023-10-13T06:00:55.805Z,1001.41
2023-10-13T06:01:55.947Z,1001.41
2023-10-13T06:02:56.019Z,1001.41
2023-10-13T06:03:56.116Z,1001.43
2023-10-13T06:04:56.195Z,1001.46
2023-10-13T06:05:56.261Z,1001.53
2023-10-13T06:06:56.312Z,1001.58
2023-10-13T06:07:56.460Z,1001.53
2023-10-13T06:08:56.475Z,1001.62
2023-10-13T06:09:56.544Z,1001.64
2023-10-13T06:10:56.697Z,1001.64
2023-10-13T06:11:56.749Z,1001.69
2023-10-13T06:12:56.818Z,1001.69
2023-10-13T06:13:56.903Z,1001.68
2023-10-13T06:14:56.973Z,1001.76
2023-10-13T06:15:57.064Z,1001.67
2023-10-13T06:16:57.206Z,1001.60
2023-10-13T06:17:57.221Z,1001.59
2023-10-13T06:18:57.268Z,1001.67
2023-10-13T06:19:57.373Z,1001.65
2023-10-13T06:20:57.436Z,1001.65
2023-10-13T06:21:57.465Z,1001.55
2023-10-13T06:22:57.573Z,1001.69
2023-10-13T06:23:57.752Z,1001.64
2023-10-13T06:24:57.707Z,1001.60
2023-10-13T06:25:57.799Z,1001.62
2023-10-13T06:26:57.853Z,1001.58
2023-10-13T06:27:57.934Z,1001.52
2023-10-13T06:28:58.008Z,1001.55
2023-10-13T06:29:58.062Z,1001.49
2023-10-13T06:30:58.122Z,1001.53
2023-10-13T06:31:58.423Z,1001.60
2023-10-13T06:32:58.502Z,1001.48
2023-10-13T06:33:58.422Z,1001.42
2023-10-13T06:34:58.518Z,1001.34
2023-10-13T06:35:58.596Z,1001.28
2023-10-13T06:36:58.680Z,1001.30
2023-10-13T06:37:58.725Z,1001.25
2023-10-13T06:38:58.803Z,1001.25
2023-10-13T06:39:58.912Z,1001.28
2023-10-13T06:40:59.008Z,1001.31
2023-10-13T06:41:59.042Z,1001.18
2023-10-13T06:42:59.082Z,1001.22
2023-10-13T06:43:59.215Z,1001.20
2023-10-13T06:44:59.259Z,1001.11
2023-10-13T06:45:59.386Z,1001.06
2023-10-13T06:46:59.735Z,1001.22
2023-10-13T06:47:59.565Z,1001.23
2023-10-13T06:48:59.606Z,1001.24
2023-10-13T06:49:59.696Z,1001.23
2023-10-13T06:50:59.759Z,1001.26
2023-10-13T06:51:59.865Z,1001.29
2023-10-13T06:52:59.928Z,1001.27
2023-10-13T06:53:59.976Z,1001.28
2023-10-13T06:55:06.224Z,1001.36
2023-10-13T06:56:00.333Z,1001.30
2023-10-13T06:57:00.320Z,1001.33
2023-10-13T06:58:00.388Z,1001.35
2023-10-13T06:59:00.527Z,1001.33
2023-10-13T07:00:00.515Z,1001.31
2023-10-13T07:01:00.710Z,1001.40
2023-10-13T07:02:59.891Z,1001.27
2023-10-13T07:04:00.957Z,1001.31
2023-10-13T07:05:01.137Z,1001.27
2023-10-13T07:06:01.085Z,1001.27
2023-10-13T07:07:01.177Z,1001.24
2023-10-13T07:08:03.222Z,1001.33
2023-10-13T07:09:01.331Z,1001.35
2023-10-13T07:10:01.440Z,1001.41
2023-10-13T07:11:01.404Z,1001.37
2023-10-13T07:12:01.497Z,1001.43
2023-10-13T07:13:01.587Z,1001.44
2023-10-13T07:14:02.041Z,1001.45
2023-10-13T07:15:01.709Z,1001.42
2023-10-13T07:16:01.200Z,1001.37
2023-10-13T07:17:02.066Z,1001.42
2023-10-13T07:18:02.141Z,1001.41
2023-10-13T07:19:02.029Z,1001.36
2023-10-13T07:20:02.152Z,1001.35
2023-10-13T07:21:02.218Z,1001.36
2023-10-13T07:22:02.280Z,1001.38
2023-10-13T07:23:02.375Z,1001.33
2023-10-13T07:24:02.440Z,1001.31
2023-10-13T07:25:02.516Z,1001.32
2023-10-13T07:26:02.577Z,1001.27
2023-10-13T07:27:02.686Z,1001.30
2023-10-13T07:28:02.788Z,1001.30
2023-10-13T07:29:02.859Z,1001.31
2023-10-13T07:30:02.974Z,1001.24
2023-10-13T07:31:03.073Z,1001.18
2023-10-13T07:32:03.165Z,1001.22
2023-10-13T07:33:03.234Z,1001.20
2023-10-13T07:34:03.244Z,1001.20
2023-10-13T07:35:03.394Z,1001.22
2023-10-13T07:36:03.415Z,1001.19
2023-10-13T07:37:03.491Z,1001.13
2023-10-13T07:38:03.609Z,1001.20
2023-10-13T07:39:19.091Z,1001.18
2023-10-13T07:40:03.811Z,1001.14
2023-10-13T07:41:03.828Z,1001.13
2023-10-13T07:42:03.932Z,1001.18
2023-10-13T07:43:03.982Z,1001.18
2023-10-13T07:44:04.085Z,1001.19
2023-10-13T07:45:04.233Z,1001.17
2023-10-13T07:46:04.289Z,1001.17
2023-10-13T07:47:04.339Z,1001.22
2023-10-13T07:48:04.420Z,1001.22
2023-10-13T07:49:04.430Z,1001.21
2023-10-13T07:50:04.594Z,1001.20
2023-10-13T07:51:04.618Z,1001.16
2023-10-13T07:52:04.678Z,1001.24
2023-10-13T07:53:04.747Z,1001.21
2023-10-13T07:54:04.839Z,1001.19
2023-10-13T07:55:03.950Z,1001.22
2023-10-13T07:56:05.109Z,1001.24
2023-10-13T07:57:05.083Z,1001.22
2023-10-13T07:58:05.231Z,1001.22
2023-10-13T07:59:05.654Z,1001.18
2023-10-13T08:00:05.305Z,1001.13
2023-10-13T08:01:05.447Z,1001.16
2023-10-13T08:02:05.625Z,1001.23
2023-10-13T08:03:05.552Z,1001.07
2023-10-13T08:04:05.772Z,1001.09
2023-10-13T08:05:05.682Z,1001.08
2023-10-13T08:06:06.045Z,1001.12
2023-10-13T08:07:05.853Z,1001.00
2023-10-13T08:08:06.007Z,1000.99
2023-10-13T08:09:06.047Z,1000.99
2023-10-13T08:10:06.135Z,1001.02
2023-10-13T08:11:06.245Z,1001.00
2023-10-13T08:12:06.324Z,1000.95
2023-10-13T08:13:06.379Z,1000.92
2023-10-13T08:14:13.022Z,1000.95
2023-10-13T08:15:07.441Z,1000.94
2023-10-13T08:16:06.773Z,1000.90
2023-10-13T08:17:06.736Z,1000.93
2023-10-13T08:18:06.951Z,1000.86
2023-10-13T08:19:06.942Z,1000.85
2023-10-13T08:20:07.064Z,1000.87
2023-10-13T08:21:07.097Z,1000.83
2023-10-13T08:22:07.153Z,1000.79
2023-10-13T08:23:07.248Z,1000.78
2023-10-13T08:24:07.380Z,1000.76
2023-10-13T08:25:07.422Z,1000.75
2023-10-13T08:26:07.621Z,1000.74
2023-10-13T08:27:07.557Z,1000.72
2023-10-13T08:28:06.656Z,1000.72
2023-10-13T08:29:07.797Z,1000.69
2023-10-13T08:30:07.904Z,1000.64
2023-10-13T08:31:07.968Z,1000.59
2023-10-13T08:32:08.125Z,1000.60
2023-10-13T08:33:08.116Z,1000.63
2023-10-13T08:34:08.339Z,1000.62
2023-10-13T08:35:08.360Z,1000.57
2023-10-13T08:36:08.505Z,1000.52
2023-10-13T08:37:08.713Z,1000.53
2023-10-13T08:38:22.711Z,1000.49
2023-10-13T08:39:08.632Z,1000.43
2023-10-13T08:40:26.440Z,1000.42
2023-10-13T08:41:08.824Z,1000.39
2023-10-13T08:42:08.806Z,1000.27
2023-10-13T08:43:08.891Z,1000.33
2023-10-13T08:44:08.995Z,1000.32
2023-10-13T08:45:09.104Z,1000.29
2023-10-13T08:46:09.176Z,1000.23
2023-10-13T08:47:09.331Z,1000.27
2023-10-13T08:48:09.470Z,1000.33
2023-10-13T08:49:09.467Z,1000.27
2023-10-13T08:50:09.552Z,1000.28
2023-10-13T08:51:09.596Z,1000.18
2023-10-13T08:52:09.781Z,1000.17
2023-10-13T08:53:09.829Z,1000.18
2023-10-13T08:54:09.873Z,1000.15
2023-10-13T08:55:09.955Z,1000.13
2023-10-13T08:56:10.042Z,1000.11
2023-10-13T08:57:10.093Z,1000.06
2023-10-13T08:58:10.202Z,1000.03
2023-10-13T08:59:10.317Z,1000.00
2023-10-13T09:00:10.384Z,999.96
2023-10-13T09:01:10.453Z,1000.01
2023-10-13T09:02:10.563Z,999.97
2023-10-13T09:03:10.670Z,1000.01
2023-10-13T09:04:11.119Z,999.96
2023-10-13T09:05:10.755Z,999.93
2023-10-13T09:06:10.900Z,999.95
2023-10-13T09:07:10.941Z,999.98
2023-10-13T09:08:11.268Z,999.96
2023-10-13T09:09:11.126Z,999.93
2023-10-13T09:10:11.175Z,999.93
2023-10-13T09:11:11.350Z,999.87
2023-10-13T09:12:11.358Z,999.85
2023-10-13T09:13:11.429Z,999.89
2023-10-13T09:14:11.545Z,999.83
2023-10-13T09:15:11.609Z,999.81
2023-10-13T09:16:12.838Z,999.78
2023-10-13T09:17:11.753Z,999.85
2023-10-13T09:18:11.801Z,999.85
2023-10-13T09:19:11.948Z,999.81
2023-10-13T09:20:12.089Z,999.83
2023-10-13T09:21:12.552Z,999.74
2023-10-13T09:22:13.180Z,999.75
2023-10-13T09:23:12.315Z,999.66
2023-10-13T09:24:12.376Z,999.69
2023-10-13T09:25:12.455Z,999.75
2023-10-13T09:26:12.546Z,999.79
2023-10-13T09:27:12.617Z,999.66
2023-10-13T09:28:12.694Z,999.71
2023-10-13T09:29:12.832Z,999.64
2023-10-13T09:30:12.916Z,999.65
2023-10-13T09:31:13.045Z,999.60
2023-10-13T09:32:13.651Z,999.65
2023-10-13T09:33:13.457Z,999.60
2023-10-13T09:34:13.225Z,999.66
2023-10-13T09:35:13.331Z,999.63
2023-10-13T09:36:13.373Z,999.61
2023-10-13T09:37:13.484Z,999.59
2023-10-13T09:38:13.535Z,999.59
2023-10-13T09:39:13.637Z,999.57
2023-10-13T09:40:13.928Z,999.54
2023-10-13T09:41:13.839Z,999.53
2023-10-13T09:42:16.462Z,999.62
2023-10-13T09:43:13.916Z,999.72
2023-10-13T09:44:13.992Z,999.69
2023-10-13T09:45:14.112Z,999.57
2023-10-13T09:46:14.222Z,999.52
2023-10-13T09:47:14.450Z,999.56
2023-10-13T09:48:16.467Z,999.54
2023-10-13T09:49:14.389Z,999.40
2023-10-13T09:50:14.597Z,999.37
2023-10-13T09:51:14.606Z,999.35
2023-10-13T09:52:14.701Z,999.33
2023-10-13T09:53:15.517Z,999.49
2023-10-13T09:54:27.100Z,999.45
2023-10-13T09:55:14.977Z,999.35
2023-10-13T09:56:15.019Z,999.37
2023-10-13T09:57:15.106Z,999.52
2023-10-13T09:58:15.272Z,999.44
2023-10-13T09:59:15.208Z,999.44
2023-10-13T10:00:16.528Z,999.34
2023-10-13T10:01:15.393Z,999.25
2023-10-13T10:02:15.558Z,999.29
2023-10-13T10:03:15.694Z,999.27
2023-10-13T10:04:15.612Z,999.14
2023-10-13T10:05:15.758Z,999.23
2023-10-13T10:06:17.462Z,999.13
2023-10-13T10:07:15.892Z,999.06
2023-10-13T10:08:16.095Z,999.14
2023-10-13T10:09:16.041Z,999.17
2023-10-13T10:10:16.160Z,999.13
2023-10-13T10:11:16.216Z,999.20
2023-10-13T10:12:16.348Z,999.24
2023-10-13T10:13:16.427Z,999.21
2023-10-13T10:14:16.452Z,999.19
2023-10-13T10:15:16.616Z,999.19
2023-10-13T10:16:16.661Z,999.00
2023-10-13T10:17:16.742Z,999.09
2023-10-13T10:18:16.786Z,998.97
2023-10-13T10:19:16.856Z,998.96
2023-10-13T10:20:16.987Z,999.00
2023-10-13T10:21:17.003Z,999.05
2023-10-13T10:22:17.161Z,998.96
2023-10-13T10:23:17.196Z,999.08
2023-10-13T10:24:17.291Z,999.04
2023-10-13T10:25:17.405Z,999.15
2023-10-13T10:26:17.484Z,999.10
2023-10-13T10:27:17.522Z,999.03
2023-10-13T10:28:17.620Z,999.07
2023-10-13T10:29:17.672Z,999.05
2023-10-13T10:30:17.801Z,999.07
2023-10-13T10:31:17.938Z,999.11
2023-10-13T10:32:17.990Z,999.06
2023-10-13T10:33:17.996Z,999.08
2023-10-13T10:34:18.041Z,999.05
2023-10-13T10:35:18.137Z,998.92
2023-10-13T10:36:18.212Z,999.11
2023-10-13T10:37:18.328Z,998.99
2023-10-13T10:38:18.359Z,998.94
2023-10-13T10:39:18.458Z,998.97
2023-10-13T10:40:18.544Z,998.93
2023-10-13T10:41:18.591Z,998.86
2023-10-13T10:42:18.750Z,998.83
2023-10-13T10:43:32.545Z,998.78
2023-10-13T10:44:18.958Z,998.72
2023-10-13T10:45:19.096Z,998.87
2023-10-13T10:46:19.115Z,998.77
2023-10-13T10:47:19.212Z,998.90
2023-10-13T10:48:19.372Z,998.69
2023-10-13T10:49:19.331Z,998.58
2023-10-13T10:50:19.399Z,998.73
2023-10-13T10:51:19.468Z,998.77
2023-10-13T10:52:19.726Z,998.81
2023-10-13T10:53:19.648Z,998.66
2023-10-13T10:54:19.927Z,998.75
2023-10-13T10:55:19.815Z,998.74
2023-10-13T10:56:19.920Z,998.72
2023-10-13T10:57:19.964Z,998.70
2023-10-13T10:58:20.054Z,998.63
2023-10-13T10:59:20.125Z,998.63
2023-10-13T11:00:20.219Z,998.62
2023-10-13T11:01:20.423Z,998.65
2023-10-13T11:02:20.394Z,998.56
2023-10-13T11:03:20.597Z,998.54
2023-10-13T11:04:21.960Z,998.53
2023-10-13T11:05:20.602Z,998.58
2023-10-13T11:06:20.688Z,998.41
2023-10-13T11:07:20.800Z,998.52
2023-10-13T11:08:20.844Z,998.55
2023-10-13T11:09:22.526Z,998.43
2023-10-13T11:10:21.193Z,998.50
2023-10-13T11:11:21.118Z,998.65
2023-10-13T11:12:21.202Z,998.43
2023-10-13T11:13:21.285Z,998.35
2023-10-13T11:14:21.614Z,998.31
2023-10-13T11:15:21.967Z,998.30
2023-10-13T11:16:21.582Z,998.37
2023-10-13T11:17:21.642Z,998.32
2023-10-13T11:18:21.860Z,998.29
2023-10-13T11:19:21.857Z,998.26
2023-10-13T11:20:22.005Z,998.30
2023-10-13T11:21:21.986Z,998.19
2023-10-13T11:22:22.147Z,998.16
2023-10-13T11:23:22.149Z,998.20
2023-10-13T11:24:22.435Z,998.20
2023-10-13T11:25:22.415Z,998.15
2023-10-13T11:26:22.517Z,998.04
2023-10-13T11:27:23.338Z,998.07
2023-10-13T11:28:22.680Z,998.05
2023-10-13T11:29:22.663Z,998.08
2023-10-13T11:30:22.751Z,998.11
2023-10-13T11:31:23.068Z,998.01
2023-10-13T11:32:22.944Z,997.90
2023-10-13T11:33:22.995Z,998.02
2023-10-13T11:34:23.263Z,998.04
2023-10-13T11:35:23.174Z,997.98
2023-10-13T11:36:23.290Z,997.86
2023-10-13T11:37:23.530Z,997.87
2023-10-13T11:38:23.417Z,997.87
2023-10-13T11:39:23.468Z,997.90
2023-10-13T11:40:23.572Z,997.79
2023-10-13T11:41:23.951Z,997.84
2023-10-13T11:42:23.742Z,997.90
2023-10-13T11:43:23.809Z,997.79
2023-10-13T11:44:24.226Z,997.84
2023-10-13T11:45:23.962Z,997.83
2023-10-13T11:46:24.075Z,997.86
2023-10-13T11:47:24.335Z,997.86
2023-10-13T11:48:24.510Z,997.79
2023-10-13T11:49:24.375Z,997.77
2023-10-13T11:50:24.376Z,997.73
2023-10-13T11:51:24.431Z,997.71
2023-10-13T11:52:24.565Z,997.75
2023-10-13T11:53:24.948Z,997.82
2023-10-13T11:54:25.008Z,997.76
2023-10-13T11:55:24.815Z,997.78
2023-10-13T11:56:24.857Z,997.79
2023-10-13T11:57:24.983Z,997.69
2023-10-13T11:58:25.106Z,997.69
2023-10-13T11:59:25.101Z,997.73
2023-10-13T12:00:25.204Z,997.70
2023-10-13T12:01:25.346Z,997.64
2023-10-13T12:02:25.487Z,997.63
2023-10-13T12:03:25.512Z,997.57
2023-10-13T12:04:25.988Z,997.68
2023-10-13T12:05:25.659Z,997.60
2023-10-13T12:06:25.655Z,997.56
2023-10-13T12:07:25.829Z,997.63
2023-10-13T12:08:25.842Z,997.68
2023-10-13T12:09:25.992Z,997.59
2023-10-13T12:10:26.058Z,997.56
2023-10-13T12:11:26.096Z,997.52
2023-10-13T12:12:26.229Z,997.42
2023-10-13T12:13:26.329Z,997.53
2023-10-13T12:14:26.300Z,997.56
2023-10-13T12:15:26.997Z,997.61